sensor_id;sensor_type;location;lat;lon;timestamp;temperature;humidity
39751;DHT22;37579;51.074;17.004;2022-07-30T00:00:02;25.60;50.20
39751;DHT22;37579;51.074;17.004;2022-07-30T00:02:30;25.60;49.90
39751;DHT22;37579;51.074;17.004;2022-07-30T00:04:56;25.50;49.60
39751;DHT22;37579;51.074;17.004;2022-07-30T00:07:21;25.50;49.70
39751;DHT22;37579;51.074;17.004;2022-07-30T00:09:47;25.50;49.70
39751;DHT22;37579;51.074;17.004;2022-07-30T00:12:13;25.50;49.70
39751;DHT22;37579;51.074;17.004;2022-07-30T00:14:39;25.50;49.60
39751;DHT22;37579;51.074;17.004;2022-07-30T00:17:05;25.50;49.40
39751;DHT22;37579;51.074;17.004;2022-07-30T00:19:31;25.50;49.30
39751;DHT22;37579;51.074;17.004;2022-07-30T00:21:57;25.50;49.10
39751;DHT22;37579;51.074;17.004;2022-07-30T00:24:23;25.50;49.20
39751;DHT22;37579;51.074;17.004;2022-07-30T00:26:49;25.50;49.30
39751;DHT22;37579;51.074;17.004;2022-07-30T00:29:15;25.50;49.00
39751;DHT22;37579;51.074;17.004;2022-07-30T00:31:41;25.50;49.10
39751;DHT22;37579;51.074;17.004;2022-07-30T00:34:07;25.50;49.10
39751;DHT22;37579;51.074;17.004;2022-07-30T00:36:33;25.50;49.10
39751;DHT22;37579;51.074;17.004;2022-07-30T00:38:59;25.40;48.70
39751;DHT22;37579;51.074;17.004;2022-07-30T00:41:25;25.50;48.80
39751;DHT22;37579;51.074;17.004;2022-07-30T00:43:51;25.50;48.80
39751;DHT22;37579;51.074;17.004;2022-07-30T00:46:17;25.50;48.90
39751;DHT22;37579;51.074;17.004;2022-07-30T00:48:42;25.50;48.90
39751;DHT22;37579;51.074;17.004;2022-07-30T00:51:09;25.50;48.60
39751;DHT22;37579;51.074;17.004;2022-07-30T00:53:35;25.50;48.70
39751;DHT22;37579;51.074;17.004;2022-07-30T00:56:02;25.50;48.70
39751;DHT22;37579;51.074;17.004;2022-07-30T00:58:28;25.50;48.60
39751;DHT22;37579;51.074;17.004;2022-07-30T01:00:54;25.50;48.40
39751;DHT22;37579;51.074;17.004;2022-07-30T01:03:20;25.50;48.50
39751;DHT22;37579;51.074;17.004;2022-07-30T01:05:45;25.50;48.40
39751;DHT22;37579;51.074;17.004;2022-07-30T01:08:11;25.50;48.40
39751;DHT22;37579;51.074;17.004;2022-07-30T01:10:37;25.50;48.40
39751;DHT22;37579;51.074;17.004;2022-07-30T01:13:04;25.50;48.30
39751;DHT22;37579;51.074;17.004;2022-07-30T01:15:30;25.50;48.40
39751;DHT22;37579;51.074;17.004;2022-07-30T01:18:00;25.50;48.30
39751;DHT22;37579;51.074;17.004;2022-07-30T01:20:32;25.50;48.40
39751;DHT22;37579;51.074;17.004;2022-07-30T01:23:03;25.50;48.40
39751;DHT22;37579;51.074;17.004;2022-07-30T01:25:52;25.50;48.30
39751;DHT22;37579;51.074;17.004;2022-07-30T01:28:36;25.50;48.30
39751;DHT22;37579;51.074;17.004;2022-07-30T01:31:06;25.40;48.00
39751;DHT22;37579;51.074;17.004;2022-07-30T01:33:36;25.40;48.90
39751;DHT22;37579;51.074;17.004;2022-07-30T01:36:06;25.40;48.20
39751;DHT22;37579;51.074;17.004;2022-07-30T01:38:33;25.40;48.10
39751;DHT22;37579;51.074;17.004;2022-07-30T01:41:01;25.40;48.10
39751;DHT22;37579;51.074;17.004;2022-07-30T01:43:29;25.40;48.10
39751;DHT22;37579;51.074;17.004;2022-07-30T01:45:57;25.40;48.10
39751;DHT22;37579;51.074;17.004;2022-07-30T01:48:24;25.50;48.50
39751;DHT22;37579;51.074;17.004;2022-07-30T01:50:54;25.50;48.40
39751;DHT22;37579;51.074;17.004;2022-07-30T01:53:26;25.40;48.10
39751;DHT22;37579;51.074;17.004;2022-07-30T01:55:55;25.40;48.20
39751;DHT22;37579;51.074;17.004;2022-07-30T01:58:25;25.40;48.20
39751;DHT22;37579;51.074;17.004;2022-07-30T02:00:55;25.40;48.30
39751;DHT22;37579;51.074;17.004;2022-07-30T02:03:23;25.40;48.40
39751;DHT22;37579;51.074;17.004;2022-07-30T02:05:53;25.40;48.40
39751;DHT22;37579;51.074;17.004;2022-07-30T02:08:34;25.40;48.20
39751;DHT22;37579;51.074;17.004;2022-07-30T02:11:09;25.50;48.30
39751;DHT22;37579;51.074;17.004;2022-07-30T02:13:52;25.50;48.30
39751;DHT22;37579;51.074;17.004;2022-07-30T02:16:24;25.50;48.10
39751;DHT22;37579;51.074;17.004;2022-07-30T02:19:01;25.50;48.10
39751;DHT22;37579;51.074;17.004;2022-07-30T02:21:33;25.50;48.20
39751;DHT22;37579;51.074;17.004;2022-07-30T02:24:03;25.40;48.20
39751;DHT22;37579;51.074;17.004;2022-07-30T02:26:30;25.40;48.10
39751;DHT22;37579;51.074;17.004;2022-07-30T02:28:59;25.40;48.10
39751;DHT22;37579;51.074;17.004;2022-07-30T02:31:28;25.40;48.10
39751;DHT22;37579;51.074;17.004;2022-07-30T02:33:59;25.40;48.10
39751;DHT22;37579;51.074;17.004;2022-07-30T02:36:27;25.50;48.20
39751;DHT22;37579;51.074;17.004;2022-07-30T02:38:55;25.40;48.10
39751;DHT22;37579;51.074;17.004;2022-07-30T02:41:24;25.40;48.10
39751;DHT22;37579;51.074;17.004;2022-07-30T02:43:52;25.40;48.10
39751;DHT22;37579;51.074;17.004;2022-07-30T02:46:22;25.40;48.20
39751;DHT22;37579;51.074;17.004;2022-07-30T02:49:07;25.40;48.10
39751;DHT22;37579;51.074;17.004;2022-07-30T02:51:37;25.40;48.30
39751;DHT22;37579;51.074;17.004;2022-07-30T02:54:04;25.40;48.20
39751;DHT22;37579;51.074;17.004;2022-07-30T02:56:30;25.40;48.20
39751;DHT22;37579;51.074;17.004;2022-07-30T02:58:58;25.40;48.10
39751;DHT22;37579;51.074;17.004;2022-07-30T03:01:26;25.40;48.00
39751;DHT22;37579;51.074;17.004;2022-07-30T03:03:52;25.40;47.90
39751;DHT22;37579;51.074;17.004;2022-07-30T03:06:20;25.40;48.10
39751;DHT22;37579;51.074;17.004;2022-07-30T03:08:48;25.40;48.10
39751;DHT22;37579;51.074;17.004;2022-07-30T03:11:17;25.30;48.10
39751;DHT22;37579;51.074;17.004;2022-07-30T03:13:43;25.40;48.30
39751;DHT22;37579;51.074;17.004;2022-07-30T03:16:10;25.40;48.10
39751;DHT22;37579;51.074;17.004;2022-07-30T03:18:38;25.40;48.10
39751;DHT22;37579;51.074;17.004;2022-07-30T03:21:09;25.40;48.10
39751;DHT22;37579;51.074;17.004;2022-07-30T03:23:39;25.30;48.00
39751;DHT22;37579;51.074;17.004;2022-07-30T03:26:07;25.30;48.10
39751;DHT22;37579;51.074;17.004;2022-07-30T03:28:36;25.30;48.10
39751;DHT22;37579;51.074;17.004;2022-07-30T03:31:04;25.30;48.20
39751;DHT22;37579;51.074;17.004;2022-07-30T03:33:32;25.30;48.20
39751;DHT22;37579;51.074;17.004;2022-07-30T03:35:58;25.30;48.30
39751;DHT22;37579;51.074;17.004;2022-07-30T03:38:26;25.30;48.30
39751;DHT22;37579;51.074;17.004;2022-07-30T03:40:53;25.30;48.30
39751;DHT22;37579;51.074;17.004;2022-07-30T03:43:20;25.20;48.30
39751;DHT22;37579;51.074;17.004;2022-07-30T03:45:47;25.20;48.20
39751;DHT22;37579;51.074;17.004;2022-07-30T03:48:15;25.20;48.20
39751;DHT22;37579;51.074;17.004;2022-07-30T03:50:45;25.20;48.30
39751;DHT22;37579;51.074;17.004;2022-07-30T03:53:12;25.20;48.30
39751;DHT22;37579;51.074;17.004;2022-07-30T03:55:57;25.30;48.30
39751;DHT22;37579;51.074;17.004;2022-07-30T03:58:55;25.20;48.30
39751;DHT22;37579;51.074;17.004;2022-07-30T04:01:25;25.20;48.30
39751;DHT22;37579;51.074;17.004;2022-07-30T04:04:02;25.20;48.20
39751;DHT22;37579;51.074;17.004;2022-07-30T04:06:29;25.20;48.30
39751;DHT22;37579;51.074;17.004;2022-07-30T04:08:54;25.30;48.30
39751;DHT22;37579;51.074;17.004;2022-07-30T04:11:20;25.30;48.30
39751;DHT22;37579;51.074;17.004;2022-07-30T04:14:06;25.30;48.30
39751;DHT22;37579;51.074;17.004;2022-07-30T04:16:55;25.30;48.30
39751;DHT22;37579;51.074;17.004;2022-07-30T04:19:28;25.30;48.20
39751;DHT22;37579;51.074;17.004;2022-07-30T04:21:56;25.30;48.30
39751;DHT22;37579;51.074;17.004;2022-07-30T04:24:24;25.30;48.30
39751;DHT22;37579;51.074;17.004;2022-07-30T04:26:51;25.30;48.30
39751;DHT22;37579;51.074;17.004;2022-07-30T04:29:19;25.30;48.30
39751;DHT22;37579;51.074;17.004;2022-07-30T04:31:45;25.30;48.30
39751;DHT22;37579;51.074;17.004;2022-07-30T04:34:29;25.30;48.30
39751;DHT22;37579;51.074;17.004;2022-07-30T04:36:55;25.30;48.30
39751;DHT22;37579;51.074;17.004;2022-07-30T04:39:21;25.30;48.30
39751;DHT22;37579;51.074;17.004;2022-07-30T04:41:47;25.30;48.60
39751;DHT22;37579;51.074;17.004;2022-07-30T04:44:33;25.20;48.50
39751;DHT22;37579;51.074;17.004;2022-07-30T04:47:23;25.20;48.50
39751;DHT22;37579;51.074;17.004;2022-07-30T04:50:09;25.20;48.60
39751;DHT22;37579;51.074;17.004;2022-07-30T04:52:37;25.20;48.60
39751;DHT22;37579;51.074;17.004;2022-07-30T04:55:06;25.20;48.50
39751;DHT22;37579;51.074;17.004;2022-07-30T04:57:35;25.30;48.60
39751;DHT22;37579;51.074;17.004;2022-07-30T05:00:03;25.30;48.50
39751;DHT22;37579;51.074;17.004;2022-07-30T05:02:29;25.30;48.50
39751;DHT22;37579;51.074;17.004;2022-07-30T05:04:58;25.30;48.40
39751;DHT22;37579;51.074;17.004;2022-07-30T05:07:26;25.30;48.50
39751;DHT22;37579;51.074;17.004;2022-07-30T05:09:52;25.30;48.40
39751;DHT22;37579;51.074;17.004;2022-07-30T05:12:17;25.30;48.40
39751;DHT22;37579;51.074;17.004;2022-07-30T05:14:43;25.30;48.50
39751;DHT22;37579;51.074;17.004;2022-07-30T05:17:09;25.30;48.40
39751;DHT22;37579;51.074;17.004;2022-07-30T05:19:35;25.40;48.50
39751;DHT22;37579;51.074;17.004;2022-07-30T05:22:01;25.40;48.40
39751;DHT22;37579;51.074;17.004;2022-07-30T05:24:27;25.40;48.50
39751;DHT22;37579;51.074;17.004;2022-07-30T05:26:55;25.40;48.40
39751;DHT22;37579;51.074;17.004;2022-07-30T05:29:23;25.40;48.40
39751;DHT22;37579;51.074;17.004;2022-07-30T05:31:54;25.30;48.50
39751;DHT22;37579;51.074;17.004;2022-07-30T05:34:20;25.30;48.50
39751;DHT22;37579;51.074;17.004;2022-07-30T05:36:46;25.30;48.50
39751;DHT22;37579;51.074;17.004;2022-07-30T05:39:15;25.30;48.50
39751;DHT22;37579;51.074;17.004;2022-07-30T05:42:11;25.30;48.40
39751;DHT22;37579;51.074;17.004;2022-07-30T05:44:45;25.20;48.30
39751;DHT22;37579;51.074;17.004;2022-07-30T05:47:12;25.30;48.50
39751;DHT22;37579;51.074;17.004;2022-07-30T05:49:38;25.30;48.60
39751;DHT22;37579;51.074;17.004;2022-07-30T05:52:07;25.40;48.40
39751;DHT22;37579;51.074;17.004;2022-07-30T05:54:33;25.30;48.40
39751;DHT22;37579;51.074;17.004;2022-07-30T05:57:07;25.30;48.30
39751;DHT22;37579;51.074;17.004;2022-07-30T05:59:36;25.20;48.70
39751;DHT22;37579;51.074;17.004;2022-07-30T06:02:18;25.30;48.60
39751;DHT22;37579;51.074;17.004;2022-07-30T06:05:03;25.30;48.40
39751;DHT22;37579;51.074;17.004;2022-07-30T06:07:29;25.30;48.50
39751;DHT22;37579;51.074;17.004;2022-07-30T06:09:57;25.30;48.60
39751;DHT22;37579;51.074;17.004;2022-07-30T06:12:26;25.30;48.40
39751;DHT22;37579;51.074;17.004;2022-07-30T06:15:11;25.30;48.40
39751;DHT22;37579;51.074;17.004;2022-07-30T06:17:43;25.30;48.50
39751;DHT22;37579;51.074;17.004;2022-07-30T06:20:17;25.30;48.50
39751;DHT22;37579;51.074;17.004;2022-07-30T06:22:54;25.30;48.50
39751;DHT22;37579;51.074;17.004;2022-07-30T06:25:30;25.30;48.40
39751;DHT22;37579;51.074;17.004;2022-07-30T06:27:57;25.40;48.60
39751;DHT22;37579;51.074;17.004;2022-07-30T06:30:22;25.30;48.50
39751;DHT22;37579;51.074;17.004;2022-07-30T06:32:48;25.30;48.50
39751;DHT22;37579;51.074;17.004;2022-07-30T06:35:15;25.30;48.50
39751;DHT22;37579;51.074;17.004;2022-07-30T06:37:41;25.30;48.50
39751;DHT22;37579;51.074;17.004;2022-07-30T06:40:08;25.30;48.50
39751;DHT22;37579;51.074;17.004;2022-07-30T06:42:59;25.30;48.50
39751;DHT22;37579;51.074;17.004;2022-07-30T06:45:33;25.30;48.50
39751;DHT22;37579;51.074;17.004;2022-07-30T06:48:19;25.40;48.50
39751;DHT22;37579;51.074;17.004;2022-07-30T06:50:46;25.30;48.50
39751;DHT22;37579;51.074;17.004;2022-07-30T06:53:12;25.30;48.50
39751;DHT22;37579;51.074;17.004;2022-07-30T06:56:01;25.30;48.50
39751;DHT22;37579;51.074;17.004;2022-07-30T06:58:34;25.30;48.60
39751;DHT22;37579;51.074;17.004;2022-07-30T07:01:20;25.20;48.70
39751;DHT22;37579;51.074;17.004;2022-07-30T07:03:48;25.30;48.70
39751;DHT22;37579;51.074;17.004;2022-07-30T07:06:14;25.30;48.80
39751;DHT22;37579;51.074;17.004;2022-07-30T07:08:41;25.20;48.70
39751;DHT22;37579;51.074;17.004;2022-07-30T07:11:09;25.20;48.80
39751;DHT22;37579;51.074;17.004;2022-07-30T07:13:52;25.20;48.90
39751;DHT22;37579;51.074;17.004;2022-07-30T07:16:25;25.30;48.90
39751;DHT22;37579;51.074;17.004;2022-07-30T07:18:53;25.30;48.80
39751;DHT22;37579;51.074;17.004;2022-07-30T07:21:20;25.30;48.80
39751;DHT22;37579;51.074;17.004;2022-07-30T07:23:46;25.30;48.80
39751;DHT22;37579;51.074;17.004;2022-07-30T07:26:46;25.30;48.90
39751;DHT22;37579;51.074;17.004;2022-07-30T07:29:12;25.30;48.80
39751;DHT22;37579;51.074;17.004;2022-07-30T07:31:38;25.30;49.10
39751;DHT22;37579;51.074;17.004;2022-07-30T07:34:04;25.40;49.10
39751;DHT22;37579;51.074;17.004;2022-07-30T07:36:30;25.40;49.00
39751;DHT22;37579;51.074;17.004;2022-07-30T07:38:56;25.40;49.10
39751;DHT22;37579;51.074;17.004;2022-07-30T07:41:21;25.40;49.10
39751;DHT22;37579;51.074;17.004;2022-07-30T07:43:47;25.40;49.20
39751;DHT22;37579;51.074;17.004;2022-07-30T07:46:22;25.40;49.20
39751;DHT22;37579;51.074;17.004;2022-07-30T07:48:48;25.40;49.20
39751;DHT22;37579;51.074;17.004;2022-07-30T07:51:34;25.50;49.20
39751;DHT22;37579;51.074;17.004;2022-07-30T07:54:02;25.50;49.60
39751;DHT22;37579;51.074;17.004;2022-07-30T07:56:27;25.50;49.30
39751;DHT22;37579;51.074;17.004;2022-07-30T07:58:54;25.50;49.30
39751;DHT22;37579;51.074;17.004;2022-07-30T08:01:20;25.50;49.30
39751;DHT22;37579;51.074;17.004;2022-07-30T08:04:18;25.60;50.00
39751;DHT22;37579;51.074;17.004;2022-07-30T08:07:03;25.60;50.30
39751;DHT22;37579;51.074;17.004;2022-07-30T08:09:47;25.60;50.00
39751;DHT22;37579;51.074;17.004;2022-07-30T08:12:25;25.60;50.50
39751;DHT22;37579;51.074;17.004;2022-07-30T08:15:10;25.60;50.30
39751;DHT22;37579;51.074;17.004;2022-07-30T08:17:44;25.60;50.30
39751;DHT22;37579;51.074;17.004;2022-07-30T08:20:14;25.60;50.20
39751;DHT22;37579;51.074;17.004;2022-07-30T08:22:41;25.60;50.20
39751;DHT22;37579;51.074;17.004;2022-07-30T08:25:08;25.60;50.10
39751;DHT22;37579;51.074;17.004;2022-07-30T08:27:34;25.60;50.10
39751;DHT22;37579;51.074;17.004;2022-07-30T08:30:07;25.60;50.10
39751;DHT22;37579;51.074;17.004;2022-07-30T08:32:34;25.60;50.20
39751;DHT22;37579;51.074;17.004;2022-07-30T08:35:01;25.60;50.30
39751;DHT22;37579;51.074;17.004;2022-07-30T08:37:26;25.60;50.40
39751;DHT22;37579;51.074;17.004;2022-07-30T08:39:53;25.70;50.50
39751;DHT22;37579;51.074;17.004;2022-07-30T08:42:18;25.70;50.90
39751;DHT22;37579;51.074;17.004;2022-07-30T08:44:45;25.70;50.90
39751;DHT22;37579;51.074;17.004;2022-07-30T08:47:16;25.70;50.70
39751;DHT22;37579;51.074;17.004;2022-07-30T08:50:12;25.70;50.70
39751;DHT22;37579;51.074;17.004;2022-07-30T08:53:00;25.70;50.60
39751;DHT22;37579;51.074;17.004;2022-07-30T08:55:26;25.70;50.80
39751;DHT22;37579;51.074;17.004;2022-07-30T08:57:53;25.60;50.80
39751;DHT22;37579;51.074;17.004;2022-07-30T09:00:19;25.70;50.80
39751;DHT22;37579;51.074;17.004;2022-07-30T09:02:48;25.60;50.80
39751;DHT22;37579;51.074;17.004;2022-07-30T09:05:14;25.60;50.90
39751;DHT22;37579;51.074;17.004;2022-07-30T09:07:39;25.70;50.90
39751;DHT22;37579;51.074;17.004;2022-07-30T09:10:11;25.70;50.90
39751;DHT22;37579;51.074;17.004;2022-07-30T09:12:39;25.70;51.00
39751;DHT22;37579;51.074;17.004;2022-07-30T09:15:18;25.70;51.00
39751;DHT22;37579;51.074;17.004;2022-07-30T09:20:11;25.80;51.20
39751;DHT22;37579;51.074;17.004;2022-07-30T09:22:45;25.80;51.10
39751;DHT22;37579;51.074;17.004;2022-07-30T09:25:43;25.80;51.60
39751;DHT22;37579;51.074;17.004;2022-07-30T09:28:38;25.70;51.80
39751;DHT22;37579;51.074;17.004;2022-07-30T09:31:24;25.70;52.10
39751;DHT22;37579;51.074;17.004;2022-07-30T09:37:17;25.70;52.50
39751;DHT22;37579;51.074;17.004;2022-07-30T09:40:11;25.70;52.40
39751;DHT22;37579;51.074;17.004;2022-07-30T09:45:28;25.80;53.00
39751;DHT22;37579;51.074;17.004;2022-07-30T09:47:55;25.80;53.30
39751;DHT22;37579;51.074;17.004;2022-07-30T09:50:22;25.70;53.60
39751;DHT22;37579;51.074;17.004;2022-07-30T09:52:52;25.70;53.60
39751;DHT22;37579;51.074;17.004;2022-07-30T09:55:33;25.60;54.50
39751;DHT22;37579;51.074;17.004;2022-07-30T09:58:03;25.50;55.90
39751;DHT22;37579;51.074;17.004;2022-07-30T10:00:32;25.50;56.30
39751;DHT22;37579;51.074;17.004;2022-07-30T10:03:24;25.40;56.90
39751;DHT22;37579;51.074;17.004;2022-07-30T10:06:09;25.20;57.50
39751;DHT22;37579;51.074;17.004;2022-07-30T10:08:44;25.10;58.00
39751;DHT22;37579;51.074;17.004;2022-07-30T10:11:13;25.10;58.80
39751;DHT22;37579;51.074;17.004;2022-07-30T10:13:39;25.20;59.20
39751;DHT22;37579;51.074;17.004;2022-07-30T10:16:06;25.20;59.60
39751;DHT22;37579;51.074;17.004;2022-07-30T10:18:33;25.10;59.50
39751;DHT22;37579;51.074;17.004;2022-07-30T10:21:28;25.00;59.50
39751;DHT22;37579;51.074;17.004;2022-07-30T10:24:15;25.00;59.90
39751;DHT22;37579;51.074;17.004;2022-07-30T10:27:01;25.00;60.00
39751;DHT22;37579;51.074;17.004;2022-07-30T10:29:47;25.00;60.70
39751;DHT22;37579;51.074;17.004;2022-07-30T10:32:13;25.00;60.90
39751;DHT22;37579;51.074;17.004;2022-07-30T10:34:39;25.00;61.20
39751;DHT22;37579;51.074;17.004;2022-07-30T10:37:06;25.00;61.00
39751;DHT22;37579;51.074;17.004;2022-07-30T10:39:43;24.90;61.10
39751;DHT22;37579;51.074;17.004;2022-07-30T10:42:20;25.10;60.80
39751;DHT22;37579;51.074;17.004;2022-07-30T10:45:19;25.20;60.20
39751;DHT22;37579;51.074;17.004;2022-07-30T10:47:52;25.30;60.00
39751;DHT22;37579;51.074;17.004;2022-07-30T10:50:21;25.40;59.80
39751;DHT22;37579;51.074;17.004;2022-07-30T10:53:00;25.40;59.60
39751;DHT22;37579;51.074;17.004;2022-07-30T10:55:31;25.50;59.50
39751;DHT22;37579;51.074;17.004;2022-07-30T11:05:49;25.60;59.60
39751;DHT22;37579;51.074;17.004;2022-07-30T11:08:32;25.70;59.50
39751;DHT22;37579;51.074;17.004;2022-07-30T11:10:59;25.70;59.40
39751;DHT22;37579;51.074;17.004;2022-07-30T11:16:13;25.80;59.50
39751;DHT22;37579;51.074;17.004;2022-07-30T11:19:08;25.80;59.50
39751;DHT22;37579;51.074;17.004;2022-07-30T11:21:36;25.80;59.50
39751;DHT22;37579;51.074;17.004;2022-07-30T11:24:02;25.80;59.70
39751;DHT22;37579;51.074;17.004;2022-07-30T11:29:33;25.80;59.60
39751;DHT22;37579;51.074;17.004;2022-07-30T11:32:29;25.80;59.60
39751;DHT22;37579;51.074;17.004;2022-07-30T11:35:24;25.80;59.60
39751;DHT22;37579;51.074;17.004;2022-07-30T11:40:32;25.90;59.70
39751;DHT22;37579;51.074;17.004;2022-07-30T11:45:47;25.90;59.90
39751;DHT22;37579;51.074;17.004;2022-07-30T11:48:15;25.90;59.90
39751;DHT22;37579;51.074;17.004;2022-07-30T11:50:42;25.90;59.70
39751;DHT22;37579;51.074;17.004;2022-07-30T11:53:13;26.00;59.60
39751;DHT22;37579;51.074;17.004;2022-07-30T11:55:41;26.00;59.50
39751;DHT22;37579;51.074;17.004;2022-07-30T11:58:24;25.90;59.40
39751;DHT22;37579;51.074;17.004;2022-07-30T12:00:51;25.90;59.50
39751;DHT22;37579;51.074;17.004;2022-07-30T12:03:20;25.90;59.50
39751;DHT22;37579;51.074;17.004;2022-07-30T12:05:47;25.90;59.50
39751;DHT22;37579;51.074;17.004;2022-07-30T12:08:14;25.90;59.40
39751;DHT22;37579;51.074;17.004;2022-07-30T12:10:41;25.90;59.40
39751;DHT22;37579;51.074;17.004;2022-07-30T12:13:12;25.90;59.40
39751;DHT22;37579;51.074;17.004;2022-07-30T12:15:43;25.90;59.40
39751;DHT22;37579;51.074;17.004;2022-07-30T12:18:10;25.90;59.90
39751;DHT22;37579;51.074;17.004;2022-07-30T12:20:38;26.00;59.40
39751;DHT22;37579;51.074;17.004;2022-07-30T12:23:11;25.90;59.40
39751;DHT22;37579;51.074;17.004;2022-07-30T12:25:42;25.90;59.60
39751;DHT22;37579;51.074;17.004;2022-07-30T12:28:09;25.90;59.60
39751;DHT22;37579;51.074;17.004;2022-07-30T12:30:41;25.90;59.70
39751;DHT22;37579;51.074;17.004;2022-07-30T12:33:07;25.90;59.70
39751;DHT22;37579;51.074;17.004;2022-07-30T12:36:03;25.90;59.90
39751;DHT22;37579;51.074;17.004;2022-07-30T12:38:28;25.90;59.90
39751;DHT22;37579;51.074;17.004;2022-07-30T12:41:03;25.80;59.80
39751;DHT22;37579;51.074;17.004;2022-07-30T12:43:52;25.90;59.90
39751;DHT22;37579;51.074;17.004;2022-07-30T12:46:25;26.00;59.50
39751;DHT22;37579;51.074;17.004;2022-07-30T12:48:52;26.00;59.40
39751;DHT22;37579;51.074;17.004;2022-07-30T12:51:19;25.90;59.70
39751;DHT22;37579;51.074;17.004;2022-07-30T12:53:45;25.90;59.80
39751;DHT22;37579;51.074;17.004;2022-07-30T12:56:17;25.90;60.00
39751;DHT22;37579;51.074;17.004;2022-07-30T12:58:44;25.80;60.90
39751;DHT22;37579;51.074;17.004;2022-07-30T13:01:10;25.70;61.80
39751;DHT22;37579;51.074;17.004;2022-07-30T13:03:36;25.60;62.30
39751;DHT22;37579;51.074;17.004;2022-07-30T13:06:13;25.60;61.90
39751;DHT22;37579;51.074;17.004;2022-07-30T13:08:51;25.70;61.60
39751;DHT22;37579;51.074;17.004;2022-07-30T13:11:18;25.70;61.60
39751;DHT22;37579;51.074;17.004;2022-07-30T13:13:45;25.80;61.40
39751;DHT22;37579;51.074;17.004;2022-07-30T13:16:11;25.70;61.20
39751;DHT22;37579;51.074;17.004;2022-07-30T13:18:37;25.80;61.30
39751;DHT22;37579;51.074;17.004;2022-07-30T13:21:05;25.80;61.30
39751;DHT22;37579;51.074;17.004;2022-07-30T13:23:32;25.80;61.50
39751;DHT22;37579;51.074;17.004;2022-07-30T13:25:59;25.80;61.30
39751;DHT22;37579;51.074;17.004;2022-07-30T13:28:24;25.80;62.30
39751;DHT22;37579;51.074;17.004;2022-07-30T13:30:50;25.70;62.70
39751;DHT22;37579;51.074;17.004;2022-07-30T13:33:16;25.60;63.00
39751;DHT22;37579;51.074;17.004;2022-07-30T13:35:42;25.70;62.90
39751;DHT22;37579;51.074;17.004;2022-07-30T13:38:08;25.70;62.50
39751;DHT22;37579;51.074;17.004;2022-07-30T13:40:36;25.70;62.60
39751;DHT22;37579;51.074;17.004;2022-07-30T13:43:02;25.70;62.30
39751;DHT22;37579;51.074;17.004;2022-07-30T13:45:29;25.70;62.00
39751;DHT22;37579;51.074;17.004;2022-07-30T13:47:55;25.70;62.30
39751;DHT22;37579;51.074;17.004;2022-07-30T13:50:21;25.70;62.20
39751;DHT22;37579;51.074;17.004;2022-07-30T13:52:47;25.70;62.20
39751;DHT22;37579;51.074;17.004;2022-07-30T13:55:13;25.60;62.10
39751;DHT22;37579;51.074;17.004;2022-07-30T13:57:39;25.70;62.00
39751;DHT22;37579;51.074;17.004;2022-07-30T14:03:43;25.70;61.70
39751;DHT22;37579;51.074;17.004;2022-07-30T14:06:09;25.80;61.60
39751;DHT22;37579;51.074;17.004;2022-07-30T14:08:34;25.80;61.40
39751;DHT22;37579;51.074;17.004;2022-07-30T14:11:00;25.90;61.20
39751;DHT22;37579;51.074;17.004;2022-07-30T14:13:28;25.90;60.90
39751;DHT22;37579;51.074;17.004;2022-07-30T14:15:54;26.00;61.20
39751;DHT22;37579;51.074;17.004;2022-07-30T14:18:20;26.00;61.20
39751;DHT22;37579;51.074;17.004;2022-07-30T14:20:46;26.00;60.90
39751;DHT22;37579;51.074;17.004;2022-07-30T14:23:14;26.00;61.10
39751;DHT22;37579;51.074;17.004;2022-07-30T14:25:40;26.00;60.90
39751;DHT22;37579;51.074;17.004;2022-07-30T14:28:08;26.00;61.00
39751;DHT22;37579;51.074;17.004;2022-07-30T14:30:34;26.00;61.00
39751;DHT22;37579;51.074;17.004;2022-07-30T14:33:01;26.00;61.10
39751;DHT22;37579;51.074;17.004;2022-07-30T14:35:27;26.00;61.10
39751;DHT22;37579;51.074;17.004;2022-07-30T14:37:53;26.00;61.00
39751;DHT22;37579;51.074;17.004;2022-07-30T14:40:19;26.10;60.80
39751;DHT22;37579;51.074;17.004;2022-07-30T14:42:45;26.20;60.80
39751;DHT22;37579;51.074;17.004;2022-07-30T14:45:12;26.10;60.80
39751;DHT22;37579;51.074;17.004;2022-07-30T14:47:38;26.20;60.70
39751;DHT22;37579;51.074;17.004;2022-07-30T14:50:06;26.20;60.40
39751;DHT22;37579;51.074;17.004;2022-07-30T14:52:32;26.20;61.30
39751;DHT22;37579;51.074;17.004;2022-07-30T14:55:00;26.20;61.50
39751;DHT22;37579;51.074;17.004;2022-07-30T14:57:26;26.10;62.10
39751;DHT22;37579;51.074;17.004;2022-07-30T14:59:51;26.00;62.40
39751;DHT22;37579;51.074;17.004;2022-07-30T15:02:17;26.00;62.90
39751;DHT22;37579;51.074;17.004;2022-07-30T15:04:43;26.00;62.80
39751;DHT22;37579;51.074;17.004;2022-07-30T15:07:08;25.80;62.80
39751;DHT22;37579;51.074;17.004;2022-07-30T15:09:34;25.90;62.80
39751;DHT22;37579;51.074;17.004;2022-07-30T15:12:00;25.80;62.80
39751;DHT22;37579;51.074;17.004;2022-07-30T15:14:27;25.80;62.90
39751;DHT22;37579;51.074;17.004;2022-07-30T15:16:53;25.70;63.70
39751;DHT22;37579;51.074;17.004;2022-07-30T15:19:19;25.70;63.30
39751;DHT22;37579;51.074;17.004;2022-07-30T15:21:44;25.70;63.70
39751;DHT22;37579;51.074;17.004;2022-07-30T15:24:10;25.70;63.60
39751;DHT22;37579;51.074;17.004;2022-07-30T15:26:36;25.70;63.40
39751;DHT22;37579;51.074;17.004;2022-07-30T15:29:02;25.60;63.40
39751;DHT22;37579;51.074;17.004;2022-07-30T15:31:27;25.50;63.50
39751;DHT22;37579;51.074;17.004;2022-07-30T15:33:53;25.50;63.80
39751;DHT22;37579;51.074;17.004;2022-07-30T15:36:19;25.50;63.70
39751;DHT22;37579;51.074;17.004;2022-07-30T15:38:45;25.40;63.80
39751;DHT22;37579;51.074;17.004;2022-07-30T15:41:11;25.50;63.60
39751;DHT22;37579;51.074;17.004;2022-07-30T15:43:37;25.40;64.20
39751;DHT22;37579;51.074;17.004;2022-07-30T15:46:04;25.40;63.70
39751;DHT22;37579;51.074;17.004;2022-07-30T15:48:30;25.40;63.70
39751;DHT22;37579;51.074;17.004;2022-07-30T15:51:00;25.30;63.60
39751;DHT22;37579;51.074;17.004;2022-07-30T15:53:27;25.40;63.70
39751;DHT22;37579;51.074;17.004;2022-07-30T15:55:53;25.40;63.90
39751;DHT22;37579;51.074;17.004;2022-07-30T15:58:18;25.50;63.60
39751;DHT22;37579;51.074;17.004;2022-07-30T16:00:44;25.40;63.40
39751;DHT22;37579;51.074;17.004;2022-07-30T16:03:10;25.40;63.80
39751;DHT22;37579;51.074;17.004;2022-07-30T16:05:36;25.40;63.60